sensor_id;sensor_type;location;lat;lon;timestamp;pressure;altitude;pressure_sealevel;temperature
68012;BMP180;54794;48.348;7.878;2023-03-01T00:01:40;99847.00;;;1.10
68012;BMP180;54794;48.348;7.878;2023-03-01T00:04:07;99840.00;;;1.50
68012;BMP180;54794;48.348;7.878;2023-03-01T00:06:34;99854.00;;;0.90
68012;BMP180;54794;48.348;7.878;2023-03-01T00:09:01;99855.00;;;0.70
68012;BMP180;54794;48.348;7.878;2023-03-01T00:11:31;99841.00;;;1.00
68012;BMP180;54794;48.348;7.878;2023-03-01T00:14:01;99850.00;;;0.80
68012;BMP180;54794;48.348;7.878;2023-03-01T00:16:36;99841.00;;;1.20
68012;BMP180;54794;48.348;7.878;2023-03-01T00:19:14;99838.00;;;1.20
68012;BMP180;54794;48.348;7.878;2023-03-01T00:21:42;99827.00;;;1.00
68012;BMP180;54794;48.348;7.878;2023-03-01T00:24:10;99841.00;;;1.10
68012;BMP180;54794;48.348;7.878;2023-03-01T00:26:37;99845.00;;;1.00
68012;BMP180;54794;48.348;7.878;2023-03-01T00:29:04;99848.00;;;0.80
68012;BMP180;54794;48.348;7.878;2023-03-01T00:31:33;99837.00;;;1.10
68012;BMP180;54794;48.348;7.878;2023-03-01T00:34:04;99840.00;;;0.80
68012;BMP180;54794;48.348;7.878;2023-03-01T00:36:35;99837.00;;;0.50
68012;BMP180;54794;48.348;7.878;2023-03-01T00:39:07;99840.00;;;0.70
68012;BMP180;54794;48.348;7.878;2023-03-01T00:41:34;99835.00;;;1.00
68012;BMP180;54794;48.348;7.878;2023-03-01T00:44:01;99835.00;;;0.80
68012;BMP180;54794;48.348;7.878;2023-03-01T00:46:28;99836.00;;;0.50
68012;BMP180;54794;48.348;7.878;2023-03-01T00:48:57;99830.00;;;0.50
68012;BMP180;54794;48.348;7.878;2023-03-01T00:51:27;99822.00;;;0.70
68012;BMP180;54794;48.348;7.878;2023-03-01T00:53:58;99824.00;;;1.10
68012;BMP180;54794;48.348;7.878;2023-03-01T00:56:26;99833.00;;;1.00
68012;BMP180;54794;48.348;7.878;2023-03-01T00:58:53;99813.00;;;0.90
68012;BMP180;54794;48.348;7.878;2023-03-01T01:01:25;99833.00;;;0.70
68012;BMP180;54794;48.348;7.878;2023-03-01T01:04:04;99834.00;;;0.50
68012;BMP180;54794;48.348;7.878;2023-03-01T01:06:35;99828.00;;;0.90
68012;BMP180;54794;48.348;7.878;2023-03-01T01:09:06;99811.00;;;0.90
68012;BMP180;54794;48.348;7.878;2023-03-01T01:11:35;99823.00;;;0.70
68012;BMP180;54794;48.348;7.878;2023-03-01T01:14:03;99828.00;;;0.20
68012;BMP180;54794;48.348;7.878;2023-03-01T01:16:30;99826.00;;;0.60
68012;BMP180;54794;48.348;7.878;2023-03-01T01:18:58;99822.00;;;0.70
68012;BMP180;54794;48.348;7.878;2023-03-01T01:21:26;99822.00;;;0.90
68012;BMP180;54794;48.348;7.878;2023-03-01T01:23:54;99808.00;;;0.80
68012;BMP180;54794;48.348;7.878;2023-03-01T01:26:39;99805.00;;;0.80
68012;BMP180;54794;48.348;7.878;2023-03-01T01:29:07;99810.00;;;0.70
68012;BMP180;54794;48.348;7.878;2023-03-01T01:31:36;99797.00;;;0.90
68012;BMP180;54794;48.348;7.878;2023-03-01T01:34:07;99795.00;;;1.00
68012;BMP180;54794;48.348;7.878;2023-03-01T01:36:35;99784.00;;;0.60
68012;BMP180;54794;48.348;7.878;2023-03-01T01:39:03;99782.00;;;0.60
68012;BMP180;54794;48.348;7.878;2023-03-01T01:41:30;99785.00;;;0.90
68012;BMP180;54794;48.348;7.878;2023-03-01T01:44:16;99777.00;;;0.60
68012;BMP180;54794;48.348;7.878;2023-03-01T01:47:07;99772.00;;;1.00
68012;BMP180;54794;48.348;7.878;2023-03-01T01:52:31;99770.00;;;0.80
68012;BMP180;54794;48.348;7.878;2023-03-01T01:55:09;99772.00;;;0.90
68012;BMP180;54794;48.348;7.878;2023-03-01T01:57:44;99773.00;;;0.80
68012;BMP180;54794;48.348;7.878;2023-03-01T02:00:23;99762.00;;;0.80
68012;BMP180;54794;48.348;7.878;2023-03-01T02:02:57;99770.00;;;0.90
68012;BMP180;54794;48.348;7.878;2023-03-01T02:05:45;99773.00;;;0.90
68012;BMP180;54794;48.348;7.878;2023-03-01T02:08:23;99772.00;;;0.70
68012;BMP180;54794;48.348;7.878;2023-03-01T02:10:53;99762.00;;;0.50
68012;BMP180;54794;48.348;7.878;2023-03-01T02:13:22;99770.00;;;0.30
68012;BMP180;54794;48.348;7.878;2023-03-01T02:15:49;99766.00;;;0.70
68012;BMP180;54794;48.348;7.878;2023-03-01T02:18:21;99768.00;;;0.80
68012;BMP180;54794;48.348;7.878;2023-03-01T02:23:54;99768.00;;;0.60
68012;BMP180;54794;48.348;7.878;2023-03-01T02:26:41;99759.00;;;0.40
68012;BMP180;54794;48.348;7.878;2023-03-01T02:29:08;99743.00;;;0.60
68012;BMP180;54794;48.348;7.878;2023-03-01T02:31:36;99750.00;;;0.50
68012;BMP180;54794;48.348;7.878;2023-03-01T02:34:14;99740.00;;;0.60
68012;BMP180;54794;48.348;7.878;2023-03-01T02:36:47;99746.00;;;0.60
68012;BMP180;54794;48.348;7.878;2023-03-01T02:39:23;99742.00;;;0.80
68012;BMP180;54794;48.348;7.878;2023-03-01T02:41:54;99739.00;;;0.70
68012;BMP180;54794;48.348;7.878;2023-03-01T02:44:22;99729.00;;;0.70
68012;BMP180;54794;48.348;7.878;2023-03-01T02:46:53;99741.00;;;0.30
68012;BMP180;54794;48.348;7.878;2023-03-01T02:49:28;99732.00;;;0.60
68012;BMP180;54794;48.348;7.878;2023-03-01T02:52:26;99743.00;;;0.50
68012;BMP180;54794;48.348;7.878;2023-03-01T02:55:07;99731.00;;;0.60
68012;BMP180;54794;48.348;7.878;2023-03-01T02:57:38;99739.00;;;0.40
68012;BMP180;54794;48.348;7.878;2023-03-01T03:00:20;99729.00;;;0.60
68012;BMP180;54794;48.348;7.878;2023-03-01T03:02:52;99734.00;;;0.60
68012;BMP180;54794;48.348;7.878;2023-03-01T03:05:30;99734.00;;;0.30
68012;BMP180;54794;48.348;7.878;2023-03-01T03:08:00;99731.00;;;0.50
68012;BMP180;54794;48.348;7.878;2023-03-01T03:10:35;99735.00;;;0.20
68012;BMP180;54794;48.348;7.878;2023-03-01T03:13:13;99726.00;;;0.20
68012;BMP180;54794;48.348;7.878;2023-03-01T03:15:42;99711.00;;;0.40
68012;BMP180;54794;48.348;7.878;2023-03-01T03:18:14;99704.00;;;0.40
68012;BMP180;54794;48.348;7.878;2023-03-01T03:20:43;99709.00;;;0.30
68012;BMP180;54794;48.348;7.878;2023-03-01T03:23:12;99719.00;;;0.20
68012;BMP180;54794;48.348;7.878;2023-03-01T03:25:39;99716.00;;;0.40
68012;BMP180;54794;48.348;7.878;2023-03-01T03:28:07;99712.00;;;0.50
68012;BMP180;54794;48.348;7.878;2023-03-01T03:30:40;99708.00;;;0.60
68012;BMP180;54794;48.348;7.878;2023-03-01T03:33:10;99707.00;;;0.60
68012;BMP180;54794;48.348;7.878;2023-03-01T03:35:50;99713.00;;;0.20
68012;BMP180;54794;48.348;7.878;2023-03-01T03:38:19;99711.00;;;0.40
68012;BMP180;54794;48.348;7.878;2023-03-01T03:41:08;99703.00;;;0.40
68012;BMP180;54794;48.348;7.878;2023-03-01T03:43:38;99706.00;;;0.40
68012;BMP180;54794;48.348;7.878;2023-03-01T03:46:06;99705.00;;;0.50
68012;BMP180;54794;48.348;7.878;2023-03-01T03:48:42;99716.00;;;0.10
68012;BMP180;54794;48.348;7.878;2023-03-01T03:51:15;99698.00;;;0.30
68012;BMP180;54794;48.348;7.878;2023-03-01T03:53:44;99711.00;;;-0.20
68012;BMP180;54794;48.348;7.878;2023-03-01T03:56:12;99700.00;;;-0.30
68012;BMP180;54794;48.348;7.878;2023-03-01T03:58:39;99704.00;;;0.20
68012;BMP180;54794;48.348;7.878;2023-03-01T04:01:07;99712.00;;;-0.10
68012;BMP180;54794;48.348;7.878;2023-03-01T04:03:34;99708.00;;;0.00
68012;BMP180;54794;48.348;7.878;2023-03-01T04:06:03;99702.00;;;0.20
68012;BMP180;54794;48.348;7.878;2023-03-01T04:08:31;99697.00;;;0.20
68012;BMP180;54794;48.348;7.878;2023-03-01T04:11:02;99704.00;;;0.30
68012;BMP180;54794;48.348;7.878;2023-03-01T04:13:50;99705.00;;;0.00
68012;BMP180;54794;48.348;7.878;2023-03-01T04:16:17;99702.00;;;0.10
68012;BMP180;54794;48.348;7.878;2023-03-01T04:18:44;99697.00;;;0.20
68012;BMP180;54794;48.348;7.878;2023-03-01T04:21:12;99693.00;;;0.00
68012;BMP180;54794;48.348;7.878;2023-03-01T04:23:40;99687.00;;;0.20
68012;BMP180;54794;48.348;7.878;2023-03-01T04:26:08;99690.00;;;0.40
68012;BMP180;54794;48.348;7.878;2023-03-01T04:28:40;99692.00;;;0.60
68012;BMP180;54794;48.348;7.878;2023-03-01T04:31:13;99690.00;;;0.40
68012;BMP180;54794;48.348;7.878;2023-03-01T04:33:54;99690.00;;;0.10
68012;BMP180;54794;48.348;7.878;2023-03-01T04:36:25;99692.00;;;0.40
68012;BMP180;54794;48.348;7.878;2023-03-01T04:38:55;99688.00;;;0.50
68012;BMP180;54794;48.348;7.878;2023-03-01T04:41:24;99683.00;;;0.60
68012;BMP180;54794;48.348;7.878;2023-03-01T04:43:51;99668.00;;;0.60
68012;BMP180;54794;48.348;7.878;2023-03-01T04:46:20;99678.00;;;0.40
68012;BMP180;54794;48.348;7.878;2023-03-01T04:48:48;99675.00;;;0.60
68012;BMP180;54794;48.348;7.878;2023-03-01T04:51:15;99680.00;;;0.30
68012;BMP180;54794;48.348;7.878;2023-03-01T04:53:44;99671.00;;;0.50
68012;BMP180;54794;48.348;7.878;2023-03-01T04:56:11;99671.00;;;0.50
68012;BMP180;54794;48.348;7.878;2023-03-01T04:58:40;99679.00;;;0.50
68012;BMP180;54794;48.348;7.878;2023-03-01T05:01:11;99681.00;;;0.60
68012;BMP180;54794;48.348;7.878;2023-03-01T05:03:46;99671.00;;;0.70
68012;BMP180;54794;48.348;7.878;2023-03-01T05:06:14;99666.00;;;0.50
68012;BMP180;54794;48.348;7.878;2023-03-01T05:08:42;99666.00;;;0.60
68012;BMP180;54794;48.348;7.878;2023-03-01T05:11:10;99667.00;;;0.70
68012;BMP180;54794;48.348;7.878;2023-03-01T05:13:39;99669.00;;;0.60
68012;BMP180;54794;48.348;7.878;2023-03-01T05:16:07;99665.00;;;0.60
68012;BMP180;54794;48.348;7.878;2023-03-01T05:18:39;99660.00;;;0.50
68012;BMP180;54794;48.348;7.878;2023-03-01T05:21:13;99660.00;;;0.70
68012;BMP180;54794;48.348;7.878;2023-03-01T05:23:44;99662.00;;;0.50
68012;BMP180;54794;48.348;7.878;2023-03-01T05:26:12;99664.00;;;0.60
68012;BMP180;54794;48.348;7.878;2023-03-01T05:28:59;99656.00;;;0.60
68012;BMP180;54794;48.348;7.878;2023-03-01T05:31:27;99659.00;;;0.40
68012;BMP180;54794;48.348;7.878;2023-03-01T05:33:54;99649.00;;;0.30
68012;BMP180;54794;48.348;7.878;2023-03-01T05:36:20;99663.00;;;0.10
68012;BMP180;54794;48.348;7.878;2023-03-01T05:38:47;99667.00;;;0.40
68012;BMP180;54794;48.348;7.878;2023-03-01T05:41:15;99664.00;;;0.20
68012;BMP180;54794;48.348;7.878;2023-03-01T05:43:43;99667.00;;;0.30
68012;BMP180;54794;48.348;7.878;2023-03-01T05:46:11;99657.00;;;0.60
68012;BMP180;54794;48.348;7.878;2023-03-01T05:48:40;99661.00;;;0.70
68012;BMP180;54794;48.348;7.878;2023-03-01T05:51:07;99664.00;;;0.70
68012;BMP180;54794;48.348;7.878;2023-03-01T05:53:34;99657.00;;;0.80
68012;BMP180;54794;48.348;7.878;2023-03-01T05:56:04;99650.00;;;0.50
68012;BMP180;54794;48.348;7.878;2023-03-01T05:58:31;99661.00;;;0.50
68012;BMP180;54794;48.348;7.878;2023-03-01T06:01:11;99655.00;;;0.60
68012;BMP180;54794;48.348;7.878;2023-03-01T06:03:40;99667.00;;;0.70
68012;BMP180;54794;48.348;7.878;2023-03-01T06:06:07;99657.00;;;0.30
68012;BMP180;54794;48.348;7.878;2023-03-01T06:08:34;99660.00;;;0.50
68012;BMP180;54794;48.348;7.878;2023-03-01T06:11:00;99651.00;;;0.50
68012;BMP180;54794;48.348;7.878;2023-03-01T06:13:27;99660.00;;;0.40
68012;BMP180;54794;48.348;7.878;2023-03-01T06:15:54;99654.00;;;0.20
68012;BMP180;54794;48.348;7.878;2023-03-01T06:18:21;99666.00;;;0.40
68012;BMP180;54794;48.348;7.878;2023-03-01T06:20:55;99660.00;;;0.40
68012;BMP180;54794;48.348;7.878;2023-03-01T06:23:23;99668.00;;;0.50
68012;BMP180;54794;48.348;7.878;2023-03-01T06:25:50;99663.00;;;0.30
68012;BMP180;54794;48.348;7.878;2023-03-01T06:28:17;99664.00;;;0.40
68012;BMP180;54794;48.348;7.878;2023-03-01T06:30:44;99663.00;;;0.20
68012;BMP180;54794;48.348;7.878;2023-03-01T06:33:11;99656.00;;;0.20
68012;BMP180;54794;48.348;7.878;2023-03-01T06:35:38;99659.00;;;0.50
68012;BMP180;54794;48.348;7.878;2023-03-01T06:38:40;99654.00;;;0.40
68012;BMP180;54794;48.348;7.878;2023-03-01T06:41:07;99656.00;;;0.50
68012;BMP180;54794;48.348;7.878;2023-03-01T06:43:45;99656.00;;;0.60
68012;BMP180;54794;48.348;7.878;2023-03-01T06:46:18;99664.00;;;0.50
68012;BMP180;54794;48.348;7.878;2023-03-01T06:49:00;99651.00;;;0.40
68012;BMP180;54794;48.348;7.878;2023-03-01T06:51:51;99647.00;;;0.50
68012;BMP180;54794;48.348;7.878;2023-03-01T06:54:21;99641.00;;;0.70
68012;BMP180;54794;48.348;7.878;2023-03-01T06:56:55;99636.00;;;0.90
68012;BMP180;54794;48.348;7.878;2023-03-01T06:59:24;99627.00;;;0.70
68012;BMP180;54794;48.348;7.878;2023-03-01T07:01:56;99634.00;;;0.90
68012;BMP180;54794;48.348;7.878;2023-03-01T07:05:00;99637.00;;;0.70
68012;BMP180;54794;48.348;7.878;2023-03-01T07:07:33;99626.00;;;1.10
68012;BMP180;54794;48.348;7.878;2023-03-01T07:10:15;99637.00;;;1.20
68012;BMP180;54794;48.348;7.878;2023-03-01T07:12:59;99621.00;;;1.20
68012;BMP180;54794;48.348;7.878;2023-03-01T07:15:28;99620.00;;;0.90
68012;BMP180;54794;48.348;7.878;2023-03-01T07:17:56;99631.00;;;1.10
68012;BMP180;54794;48.348;7.878;2023-03-01T07:20:23;99636.00;;;1.00
68012;BMP180;54794;48.348;7.878;2023-03-01T07:22:53;99630.00;;;0.80
68012;BMP180;54794;48.348;7.878;2023-03-01T07:25:21;99625.00;;;0.90
68012;BMP180;54794;48.348;7.878;2023-03-01T07:27:52;99620.00;;;0.90
68012;BMP180;54794;48.348;7.878;2023-03-01T07:30:21;99618.00;;;1.10
68012;BMP180;54794;48.348;7.878;2023-03-01T07:32:48;99621.00;;;1.10
68012;BMP180;54794;48.348;7.878;2023-03-01T07:35:17;99617.00;;;1.30
68012;BMP180;54794;48.348;7.878;2023-03-01T07:37:44;99612.00;;;1.30
68012;BMP180;54794;48.348;7.878;2023-03-01T07:40:12;99616.00;;;1.30
68012;BMP180;54794;48.348;7.878;2023-03-01T07:42:39;99619.00;;;1.30
68012;BMP180;54794;48.348;7.878;2023-03-01T07:45:07;99629.00;;;1.30
68012;BMP180;54794;48.348;7.878;2023-03-01T07:47:36;99622.00;;;1.90
68012;BMP180;54794;48.348;7.878;2023-03-01T07:50:10;99616.00;;;1.90
68012;BMP180;54794;48.348;7.878;2023-03-01T07:52:41;99605.00;;;1.80
68012;BMP180;54794;48.348;7.878;2023-03-01T07:55:18;99619.00;;;1.40
68012;BMP180;54794;48.348;7.878;2023-03-01T07:57:46;99605.00;;;1.70
68012;BMP180;54794;48.348;7.878;2023-03-01T08:00:24;99615.00;;;1.80
68012;BMP180;54794;48.348;7.878;2023-03-01T08:03:08;99612.00;;;1.80
68012;BMP180;54794;48.348;7.878;2023-03-01T08:06:03;99605.00;;;1.70
68012;BMP180;54794;48.348;7.878;2023-03-01T08:08:53;99608.00;;;1.60
68012;BMP180;54794;48.348;7.878;2023-03-01T08:11:31;99611.00;;;1.60
68012;BMP180;54794;48.348;7.878;2023-03-01T08:14:07;99615.00;;;1.30
68012;BMP180;54794;48.348;7.878;2023-03-01T08:16:34;99612.00;;;1.30
68012;BMP180;54794;48.348;7.878;2023-03-01T08:19:19;99605.00;;;1.30
68012;BMP180;54794;48.348;7.878;2023-03-01T08:24:24;99600.00;;;1.70
68012;BMP180;54794;48.348;7.878;2023-03-01T08:27:11;99590.00;;;2.00
68012;BMP180;54794;48.348;7.878;2023-03-01T08:34:10;99603.00;;;2.00
68012;BMP180;54794;48.348;7.878;2023-03-01T08:37:01;99594.00;;;2.00
68012;BMP180;54794;48.348;7.878;2023-03-01T08:39:28;99591.00;;;2.50
68012;BMP180;54794;48.348;7.878;2023-03-01T08:41:55;99591.00;;;1.90
68012;BMP180;54794;48.348;7.878;2023-03-01T08:44:22;99582.00;;;1.80
68012;BMP180;54794;48.348;7.878;2023-03-01T08:46:50;99579.00;;;2.10
68012;BMP180;54794;48.348;7.878;2023-03-01T08:49:20;99568.00;;;2.40
68012;BMP180;54794;48.348;7.878;2023-03-01T08:51:47;99573.00;;;2.40
68012;BMP180;54794;48.348;7.878;2023-03-01T08:54:20;99571.00;;;2.00
68012;BMP180;54794;48.348;7.878;2023-03-01T08:56:49;99566.00;;;2.60
68012;BMP180;54794;48.348;7.878;2023-03-01T08:59:17;99562.00;;;3.00
68012;BMP180;54794;48.348;7.878;2023-03-01T09:01:45;99569.00;;;3.10
68012;BMP180;54794;48.348;7.878;2023-03-01T09:04:14;99564.00;;;3.30
68012;BMP180;54794;48.348;7.878;2023-03-01T09:06:41;99563.00;;;3.40
68012;BMP180;54794;48.348;7.878;2023-03-01T09:09:16;99557.00;;;3.20
68012;BMP180;54794;48.348;7.878;2023-03-01T09:11:45;99562.00;;;3.40
68012;BMP180;54794;48.348;7.878;2023-03-01T09:14:16;99562.00;;;3.20
68012;BMP180;54794;48.348;7.878;2023-03-01T09:16:46;99550.00;;;3.40
68012;BMP180;54794;48.348;7.878;2023-03-01T09:19:13;99545.00;;;3.50
68012;BMP180;54794;48.348;7.878;2023-03-01T09:21:40;99535.00;;;3.60
68012;BMP180;54794;48.348;7.878;2023-03-01T09:24:15;99538.00;;;3.60
68012;BMP180;54794;48.348;7.878;2023-03-01T09:26:43;99527.00;;;4.30
68012;BMP180;54794;48.348;7.878;2023-03-01T09:29:15;99531.00;;;3.80
68012;BMP180;54794;48.348;7.878;2023-03-01T09:31:42;99525.00;;;4.10
68012;BMP180;54794;48.348;7.878;2023-03-01T09:34:10;99513.00;;;4.70
68012;BMP180;54794;48.348;7.878;2023-03-01T09:36:37;99520.00;;;4.60
68012;BMP180;54794;48.348;7.878;2023-03-01T09:39:04;99518.00;;;4.70
68012;BMP180;54794;48.348;7.878;2023-03-01T09:42:02;99510.00;;;5.00
68012;BMP180;54794;48.348;7.878;2023-03-01T09:47:35;99510.00;;;4.90
68012;BMP180;54794;48.348;7.878;2023-03-01T09:50:19;99512.00;;;4.80
68012;BMP180;54794;48.348;7.878;2023-03-01T09:56:02;99509.00;;;4.70
68012;BMP180;54794;48.348;7.878;2023-03-01T10:04:41;99502.00;;;5.30
68012;BMP180;54794;48.348;7.878;2023-03-01T10:09:54;99496.00;;;5.40
68012;BMP180;54794;48.348;7.878;2023-03-01T10:12:34;99491.00;;;5.30
68012;BMP180;54794;48.348;7.878;2023-03-01T10:15:18;99487.00;;;5.10
68012;BMP180;54794;48.348;7.878;2023-03-01T10:18:12;99494.00;;;5.10
68012;BMP180;54794;48.348;7.878;2023-03-01T10:20:58;99490.00;;;4.90
68012;BMP180;54794;48.348;7.878;2023-03-01T10:23:30;99503.00;;;5.30
68012;BMP180;54794;48.348;7.878;2023-03-01T10:29:01;99502.00;;;5.50
68012;BMP180;54794;48.348;7.878;2023-03-01T10:31:47;99489.00;;;5.40
68012;BMP180;54794;48.348;7.878;2023-03-01T10:34:33;99488.00;;;5.30
68012;BMP180;54794;48.348;7.878;2023-03-01T10:37:20;99479.00;;;5.40
68012;BMP180;54794;48.348;7.878;2023-03-01T10:40:05;99482.00;;;5.20
68012;BMP180;54794;48.348;7.878;2023-03-01T10:42:48;99471.00;;;5.40
68012;BMP180;54794;48.348;7.878;2023-03-01T10:45:38;99454.00;;;6.20
68012;BMP180;54794;48.348;7.878;2023-03-01T10:48:26;99457.00;;;6.00
68012;BMP180;54794;48.348;7.878;2023-03-01T10:53:43;99449.00;;;5.70
68012;BMP180;54794;48.348;7.878;2023-03-01T10:56:15;99450.00;;;5.60
68012;BMP180;54794;48.348;7.878;2023-03-01T10:59:04;99447.00;;;6.40
68012;BMP180;54794;48.348;7.878;2023-03-01T11:01:35;99443.00;;;6.00
68012;BMP180;54794;48.348;7.878;2023-03-01T11:06:38;99432.00;;;6.10
68012;BMP180;54794;48.348;7.878;2023-03-01T11:09:19;99438.00;;;5.90
68012;BMP180;54794;48.348;7.878;2023-03-01T11:11:52;99430.00;;;5.90
68012;BMP180;54794;48.348;7.878;2023-03-01T11:14:35;99419.00;;;5.90
68012;BMP180;54794;48.348;7.878;2023-03-01T11:17:31;99426.00;;;6.10
68012;BMP180;54794;48.348;7.878;2023-03-01T11:20:16;99413.00;;;6.00
68012;BMP180;54794;48.348;7.878;2023-03-01T11:22:50;99401.00;;;6.10
68012;BMP180;54794;48.348;7.878;2023-03-01T11:25:25;99402.00;;;5.80
68012;BMP180;54794;48.348;7.878;2023-03-01T11:27:58;99394.00;;;6.00
68012;BMP180;54794;48.348;7.878;2023-03-01T11:33:18;99380.00;;;5.90
68012;BMP180;54794;48.348;7.878;2023-03-01T11:36:10;99377.00;;;6.40
68012;BMP180;54794;48.348;7.878;2023-03-01T11:38:40;99384.00;;;6.30
68012;BMP180;54794;48.348;7.878;2023-03-01T11:41:16;99368.00;;;6.40
68012;BMP180;54794;48.348;7.878;2023-03-01T11:44:03;99360.00;;;6.40
68012;BMP180;54794;48.348;7.878;2023-03-01T11:52:06;99365.00;;;6.50
68012;BMP180;54794;48.348;7.878;2023-03-01T11:57:55;99349.00;;;6.70
68012;BMP180;54794;48.348;7.878;2023-03-01T12:07:01;99333.00;;;7.10
68012;BMP180;54794;48.348;7.878;2023-03-01T12:09:46;99329.00;;;7.10
68012;BMP180;54794;48.348;7.878;2023-03-01T12:25:57;99295.00;;;7.40
68012;BMP180;54794;48.348;7.878;2023-03-01T12:38:13;99294.00;;;7.70
68012;BMP180;54794;48.348;7.878;2023-03-01T12:48:46;99275.00;;;8.40
68012;BMP180;54794;48.348;7.878;2023-03-01T12:51:24;99260.00;;;8.50
68012;BMP180;54794;48.348;7.878;2023-03-01T12:53:55;99265.00;;;8.70
68012;BMP180;54794;48.348;7.878;2023-03-01T12:56:30;99259.00;;;8.60
68012;BMP180;54794;48.348;7.878;2023-03-01T13:02:22;99252.00;;;8.90
68012;BMP180;54794;48.348;7.878;2023-03-01T13:08:19;99251.00;;;8.70
68012;BMP180;54794;48.348;7.878;2023-03-01T13:10:55;99238.00;;;9.00
68012;BMP180;54794;48.348;7.878;2023-03-01T13:13:28;99238.00;;;9.40
68012;BMP180;54794;48.348;7.878;2023-03-01T13:19:27;99237.00;;;9.20
68012;BMP180;54794;48.348;7.878;2023-03-01T13:24:47;99216.00;;;9.60
68012;BMP180;54794;48.348;7.878;2023-03-01T13:27:42;99217.00;;;9.40
68012;BMP180;54794;48.348;7.878;2023-03-01T13:30:48;99212.00;;;9.50
68012;BMP180;54794;48.348;7.878;2023-03-01T13:34:02;99212.00;;;9.60
68012;BMP180;54794;48.348;7.878;2023-03-01T13:37:17;99206.00;;;9.50
68012;BMP180;54794;48.348;7.878;2023-03-01T13:58:32;99196.00;;;9.50
68012;BMP180;54794;48.348;7.878;2023-03-01T14:05:23;99185.00;;;9.80
68012;BMP180;54794;48.348;7.878;2023-03-01T14:08:45;99183.00;;;10.00
68012;BMP180;54794;48.348;7.878;2023-03-01T14:15:38;99180.00;;;9.70
68012;BMP180;54794;48.348;7.878;2023-03-01T14:18:26;99177.00;;;10.20
68012;BMP180;54794;48.348;7.878;2023-03-01T14:26:40;99188.00;;;9.50
68012;BMP180;54794;48.348;7.878;2023-03-01T14:29:43;99191.00;;;9.80
68012;BMP180;54794;48.348;7.878;2023-03-01T14:32:40;99179.00;;;9.70
68012;BMP180;54794;48.348;7.878;2023-03-01T14:35:40;99167.00;;;9.90
68012;BMP180;54794;48.348;7.878;2023-03-01T14:38:21;99186.00;;;9.90
68012;BMP180;54794;48.348;7.878;2023-03-01T14:40:56;99175.00;;;9.70
68012;BMP180;54794;48.348;7.878;2023-03-01T14:43:25;99180.00;;;10.10
68012;BMP180;54794;48.348;7.878;2023-03-01T14:45:52;99172.00;;;9.90
68012;BMP180;54794;48.348;7.878;2023-03-01T14:48:20;99177.00;;;9.90
68012;BMP180;54794;48.348;7.878;2023-03-01T14:50:49;99177.00;;;9.50
68012;BMP180;54794;48.348;7.878;2023-03-01T14:53:26;99183.00;;;9.80
68012;BMP180;54794;48.348;7.878;2023-03-01T14:55:59;99183.00;;;10.00
68012;BMP180;54794;48.348;7.878;2023-03-01T14:58:32;99168.00;;;10.00
68012;BMP180;54794;48.348;7.878;2023-03-01T15:01:04;99173.00;;;10.40
68012;BMP180;54794;48.348;7.878;2023-03-01T15:03:37;99179.00;;;10.10
68012;BMP180;54794;48.348;7.878;2023-03-01T15:06:07;99170.00;;;10.10
68012;BMP180;54794;48.348;7.878;2023-03-01T15:08:37;99181.00;;;9.90
68012;BMP180;54794;48.348;7.878;2023-03-01T15:13:41;99178.00;;;10.10
68012;BMP180;54794;48.348;7.878;2023-03-01T15:16:21;99178.00;;;10.10
68012;BMP180;54794;48.348;7.878;2023-03-01T15:18:54;99184.00;;;10.30
68012;BMP180;54794;48.348;7.878;2023-03-01T15:21:26;99180.00;;;10.20
68012;BMP180;54794;48.348;7.878;2023-03-01T15:24:26;99184.00;;;10.00
68012;BMP180;54794;48.348;7.878;2023-03-01T15:27:00;99187.00;;;10.00
68012;BMP180;54794;48.348;7.878;2023-03-01T15:29:34;99186.00;;;10.30
68012;BMP180;54794;48.348;7.878;2023-03-01T15:32:34;99187.00;;;10.00
68012;BMP180;54794;48.348;7.878;2023-03-01T15:35:42;99177.00;;;9.80
68012;BMP180;54794;48.348;7.878;2023-03-01T15:38:35;99187.00;;;9.90
68012;BMP180;54794;48.348;7.878;2023-03-01T15:41:38;99186.00;;;9.60
68012;BMP180;54794;48.348;7.878;2023-03-01T15:44:25;99181.00;;;9.80
68012;BMP180;54794;48.348;7.878;2023-03-01T15:47:08;99174.00;;;9.80
68012;BMP180;54794;48.348;7.878;2023-03-01T15:49:53;99178.00;;;10.00
68012;BMP180;54794;48.348;7.878;2023-03-01T15:52:49;99181.00;;;9.80
68012;BMP180;54794;48.348;7.878;2023-03-01T15:55:29;99172.00;;;9.80
68012;BMP180;54794;48.348;7.878;2023-03-01T15:58:09;99170.00;;;9.70
68012;BMP180;54794;48.348;7.878;2023-03-01T16:00:36;99164.00;;;9.50
68012;BMP180;54794;48.348;7.878;2023-03-01T16:03:12;99169.00;;;9.70
68012;BMP180;54794;48.348;7.878;2023-03-01T16:05:39;99173.00;;;9.60
68012;BMP180;54794;48.348;7.878;2023-03-01T16:08:06;99175.00;;;9.60
68012;BMP180;54794;48.348;7.878;2023-03-01T16:10:34;99167.00;;;9.60
68012;BMP180;54794;48.348;7.878;2023-03-01T16:13:02;99169.00;;;9.20
68012;BMP180;54794;48.348;7.878;2023-03-01T16:15:33;99171.00;;;9.20
68012;BMP180;54794;48.348;7.878;2023-03-01T16:18:05;99166.00;;;9.10
68012;BMP180;54794;48.348;7.878;2023-03-01T16:20:34;99174.00;;;9.00
68012;BMP180;54794;48.348;7.878;2023-03-01T16:23:06;99177.00;;;8.90
68012;BMP180;54794;48.348;7.878;2023-03-01T16:25:35;99181.00;;;8.80
68012;BMP180;54794;48.348;7.878;2023-03-01T16:28:06;99181.00;;;8.60
68012;BMP180;54794;48.348;7.878;2023-03-01T16:30:38;99184.00;;;8.40
68012;BMP180;54794;48.348;7.878;2023-03-01T16:33:07;99181.00;;;8.60
68012;BMP180;54794;48.348;7.878;2023-03-01T16:35:56;99177.00;;;8.30
68012;BMP180;54794;48.348;7.878;2023-03-01T16:38:28;99191.00;;;8.20
68012;BMP180;54794;48.348;7.878;2023-03-01T16:40:55;99181.00;;;8.10
68012;BMP180;54794;48.348;7.878;2023-03-01T16:43:23;99179.00;;;8.10
68012;BMP180;54794;48.348;7.878;2023-03-01T16:45:51;99187.00;;;8.40
68012;BMP180;54794;48.348;7.878;2023-03-01T16:48:18;99183.00;;;8.20
68012;BMP180;54794;48.348;7.878;2023-03-01T16:50:55;99191.00;;;8.10
68012;BMP180;54794;48.348;7.878;2023-03-01T16:53:22;99187.00;;;8.10
68012;BMP180;54794;48.348;7.878;2023-03-01T16:55:59;99176.00;;;8.10
68012;BMP180;54794;48.348;7.878;2023-03-01T16:58:26;99186.00;;;8.00
68012;BMP180;54794;48.348;7.878;2023-03-01T17:00:55;99192.00;;;7.80
68012;BMP180;54794;48.348;7.878;2023-03-01T17:03:25;99200.00;;;7.60
68012;BMP180;54794;48.348;7.878;2023-03-01T17:05:52;99199.00;;;7.70
68012;BMP180;54794;48.348;7.878;2023-03-01T17:08:20;99197.00;;;7.80
68012;BMP180;54794;48.348;7.878;2023-03-01T17:10:47;99205.00;;;7.60
68012;BMP180;54794;48.348;7.878;2023-03-01T17:13:14;99202.00;;;7.30
68012;BMP180;54794;48.348;7.878;2023-03-01T17:15:41;99208.00;;;7.30